Time;durP1;ratioP1;P1;durP2;ratioP2;P2;SDS_P1;SDS_P2;PMS_P1;PMS_P2;Temp;Humidity;BMP_temperature;BMP_pressure;BME280_temperature;BME280_humidity;BME280_pressure;Samples;Min_cycle;Max_cycle;Signal;HPM_P1;HPM_P2
2023/09/12 00:01:06;;;;;;;13.82;11.63;;;;;;;16.94;100.00;96358.06;5013754;28;20120;-72
2023/09/12 00:03:33;;;;;;;15.10;11.23;;;;;;;16.94;100.00;96352.53;5020001;28;20033;-72
2023/09/12 00:06:00;;;;;;;16.83;11.60;;;;;;;16.99;100.00;96360.34;4985581;28;20515;-73
2023/09/12 00:08:26;;;;;;;17.13;11.88;;;;;;;17.00;100.00;96362.72;5011916;28;20045;-74
2023/09/12 00:11:12;;;;;;;17.40;11.63;;;;;;;16.99;100.00;96354.81;5002495;28;20043;-74
2023/09/12 00:13:39;;;;;;;14.52;11.60;;;;;;;16.91;100.00;96356.91;5004884;28;20511;-74
2023/09/12 00:16:05;;;;;;;18.75;11.82;;;;;;;16.85;100.00;96353.03;5010284;28;20484;-75
2023/09/12 00:18:31;;;;;;;13.85;11.43;;;;;;;16.82;100.00;96362.16;5002278;28;20037;-73
2023/09/12 00:20:59;;;;;;;21.52;11.88;;;;;;;16.82;100.00;96354.63;4994654;28;20045;-75
2023/09/12 00:23:24;;;;;;;18.15;11.93;;;;;;;16.77;100.00;96357.88;4996030;28;20081;-73
2023/09/12 00:25:51;;;;;;;19.92;12.25;;;;;;;16.77;100.00;96349.56;5014377;28;20503;-74
2023/09/12 00:28:17;;;;;;;17.55;12.05;;;;;;;16.75;100.00;96346.44;5007054;28;20197;-74
2023/09/12 00:30:43;;;;;;;16.15;12.73;;;;;;;16.63;100.00;96336.69;5018520;28;20048;-74
2023/09/12 00:33:08;;;;;;;15.43;11.85;;;;;;;16.49;100.00;96339.66;5015104;28;20049;-75
2023/09/12 00:35:33;;;;;;;17.60;11.75;;;;;;;16.44;100.00;96338.16;5021887;28;20524;-74
2023/09/12 00:38:00;;;;;;;15.05;11.32;;;;;;;16.42;100.00;96340.56;5018953;28;20081;-75
2023/09/12 00:40:26;;;;;;;16.20;12.15;;;;;;;16.44;100.00;96340.91;5016373;28;20451;-74
2023/09/12 00:42:51;;;;;;;14.38;11.68;;;;;;;16.50;100.00;96343.22;5020859;28;20084;-74
2023/09/12 00:45:17;;;;;;;17.60;11.65;;;;;;;16.55;100.00;96338.00;4997595;28;20052;-72
2023/09/12 00:47:42;;;;;;;15.95;12.07;;;;;;;16.53;100.00;96340.41;5013427;28;20081;-76
2023/09/12 00:50:09;;;;;;;17.83;11.32;;;;;;;16.53;100.00;96336.84;5012654;28;20460;-74
2023/09/12 00:52:35;;;;;;;16.92;13.00;;;;;;;16.53;100.00;96334.88;4987224;28;20116;-74
2023/09/12 00:55:01;;;;;;;18.60;11.63;;;;;;;16.41;100.00;96327.91;5019754;28;20045;-73
2023/09/12 00:57:28;;;;;;;15.77;11.95;;;;;;;16.34;100.00;96330.00;5011499;28;20056;-74
2023/09/12 00:59:54;;;;;;;16.13;11.57;;;;;;;16.32;100.00;96326.88;5024430;28;20069;-73
2023/09/12 01:02:20;;;;;;;16.83;11.25;;;;;;;16.30;100.00;96332.78;5025588;28;20041;-74
2023/09/12 02:12:51;;;;;;;17.35;12.45;;;;;;;15.28;100.00;96372.78;4997590;28;20056;-74
2023/09/12 02:15:17;;;;;;;19.20;12.68;;;;;;;15.34;100.00;96367.63;5016948;28;20037;-74
2023/09/12 02:17:42;;;;;;;16.42;12.48;;;;;;;15.40;100.00;96369.56;5009255;28;20129;-74
2023/09/12 02:20:08;;;;;;;19.10;13.15;;;;;;;15.36;100.00;96368.00;5009231;28;20124;-72
2023/09/12 02:22:34;;;;;;;17.23;12.60;;;;;;;15.23;100.00;96363.00;5019422;28;20041;-74
2023/09/12 02:24:59;;;;;;;19.67;12.30;;;;;;;15.13;100.00;96365.81;5022795;28;20033;-74
2023/09/12 02:27:25;;;;;;;16.33;12.60;;;;;;;15.20;100.00;96363.78;5016306;28;20048;-74
2023/09/12 02:29:50;;;;;;;19.85;12.27;;;;;;;15.27;100.00;96369.25;5022071;28;20026;-74
2023/09/12 02:32:15;;;;;;;15.75;11.45;;;;;;;15.29;100.00;96361.34;4999439;28;20041;-73
2023/09/12 02:34:41;;;;;;;15.63;11.88;;;;;;;15.31;100.00;96357.41;5021945;28;20507;-73
2023/09/12 02:37:06;;;;;;;15.65;11.93;;;;;;;15.33;100.00;96368.84;5018085;28;20033;-74
2023/09/12 02:39:32;;;;;;;19.42;12.00;;;;;;;15.34;100.00;96362.91;5021336;28;20131;-74
2023/09/12 02:41:57;;;;;;;16.40;11.77;;;;;;;15.30;100.00;96373.16;5022164;28;20519;-74
2023/09/12 02:44:23;;;;;;;14.68;11.20;;;;;;;15.28;100.00;96368.06;5014195;28;20389;-74
2023/09/12 02:46:48;;;;;;;17.75;11.95;;;;;;;15.27;100.00;96368.47;5015385;28;20120;-75
2023/09/12 02:49:14;;;;;;;19.55;11.60;;;;;;;15.24;100.00;96366.53;5011353;28;20091;-75
2023/09/12 02:51:39;;;;;;;15.45;11.43;;;;;;;15.20;100.00;96369.31;5002425;28;20040;-74
2023/09/12 02:54:05;;;;;;;13.02;11.27;;;;;;;15.23;100.00;96370.47;5015909;28;20084;-76
2023/09/12 02:56:31;;;;;;;20.67;11.98;;;;;;;15.23;100.00;96370.47;5017635;28;20488;-74
2023/09/12 02:58:57;;;;;;;17.98;11.80;;;;;;;15.31;100.00;96365.69;5019873;28;20513;-74
2023/09/12 03:01:22;;;;;;;17.90;11.90;;;;;;;15.29;100.00;96372.41;4981651;28;20311;-74
2023/09/12 03:03:49;;;;;;;15.57;11.05;;;;;;;15.27;100.00;96369.25;5000859;28;20454;-74
2023/09/12 03:06:15;;;;;;;15.65;11.13;;;;;;;15.19;100.00;96373.25;5013089;28;20037;-76
2023/09/12 03:08:41;;;;;;;14.70;11.68;;;;;;;15.15;100.00;96372.50;5022562;28;20527;-74
2023/09/12 03:11:07;;;;;;;16.67;11.10;;;;;;;15.15;100.00;96374.47;5017988;28;20043;-74
2023/09/12 03:13:40;;;;;;;14.60;12.38;;;;;;;15.06;100.00;96370.19;5021715;28;20124;-74
2023/09/12 03:16:13;;;;;;;17.85;12.25;;;;;;;15.00;100.00;96366.31;5003753;28;20431;-74
2023/09/12 03:18:39;;;;;;;17.02;12.77;;;;;;;14.98;100.00;96365.13;5030842;28;20136;-76
2023/09/12 03:21:05;;;;;;;18.30;11.88;;;;;;;14.93;100.00;96377.38;5016265;28;20492;-76
2023/09/12 03:23:31;;;;;;;19.42;11.77;;;;;;;14.89;100.00;96373.84;4977640;28;20045;-73
2023/09/12 03:26:15;;;;;;;15.93;12.10;;;;;;;14.87;100.00;96373.44;5007503;28;20041;-74
2023/09/12 03:28:41;;;;;;;17.90;12.05;;;;;;;14.88;100.00;96364.78;4998573;28;20045;-74
2023/09/12 03:31:13;;;;;;;15.43;13.00;;;;;;;14.88;100.00;96366.75;4994459;28;20034;-72
2023/09/12 03:33:40;;;;;;;19.83;12.32;;;;;;;14.78;100.00;96365.63;5022033;28;20264;-73
2023/09/12 03:36:06;;;;;;;17.77;12.07;;;;;;;14.39;100.00;96366.59;5016390;28;20063;-74
2023/09/12 03:38:33;;;;;;;18.60;13.65;;;;;;;14.02;100.00;96365.13;4994007;28;20115;-73
2023/09/12 03:40:58;;;;;;;20.60;14.52;;;;;;;13.65;100.00;96360.88;5017569;28;20041;-73
2023/09/12 03:43:24;;;;;;;19.08;15.25;;;;;;;13.54;100.00;96360.88;5016597;28;20611;-73
2023/09/12 03:45:49;;;;;;;16.85;14.15;;;;;;;13.71;100.00;96364.78;5016081;28;20042;-72
2023/09/12 03:48:14;;;;;;;22.35;15.38;;;;;;;13.76;100.00;96358.09;5013456;28;20088;-73
2023/09/12 03:50:40;;;;;;;16.80;13.88;;;;;;;13.89;100.00;96356.50;5018707;28;20029;-73
2023/09/12 03:53:06;;;;;;;24.70;16.25;;;;;;;13.95;100.00;96354.94;5015505;28;20041;-73
2023/09/12 03:55:32;;;;;;;18.98;14.02;;;;;;;13.92;100.00;96358.47;5021761;28;20438;-73
2023/09/12 03:57:57;;;;;;;20.33;13.75;;;;;;;13.96;100.00;96350.19;5000614;28;20125;-73
2023/09/12 04:00:22;;;;;;;18.55;13.30;;;;;;;14.09;100.00;96353.31;5012026;28;20129;-73
2023/09/12 04:02:48;;;;;;;17.92;12.55;;;;;;;14.21;100.00;96358.38;5021871;28;20037;-73
2023/09/12 04:05:14;;;;;;;19.50;13.77;;;;;;;14.26;100.00;96360.72;5008514;28;20129;-73
2023/09/12 04:07:40;;;;;;;14.00;12.15;;;;;;;14.31;100.00;96363.06;5016592;28;20681;-73
2023/09/12 04:10:05;;;;;;;15.82;12.70;;;;;;;14.33;100.00;96363.47;5017431;28;20120;-73
2023/09/12 04:12:40;;;;;;;16.55;12.30;;;;;;;14.34;100.00;96369.75;5008710;28;20033;-73
2023/09/12 04:15:06;;;;;;;16.88;11.65;;;;;;;14.36;100.00;96361.09;5015054;28;20801;-73
2023/09/12 04:17:32;;;;;;;15.45;10.88;;;;;;;14.38;100.00;96369.72;5018240;28;20049;-73
2023/09/12 04:19:57;;;;;;;20.77;12.65;;;;;;;14.36;100.00;96370.13;5018585;28;20044;-75
2023/09/12 04:22:23;;;;;;;15.75;11.90;;;;;;;14.33;100.00;96371.72;5003875;28;20466;-74
2023/09/12 04:24:48;;;;;;;17.67;11.82;;;;;;;14.30;100.00;96374.50;5028980;28;20033;-73
2023/09/12 04:27:13;;;;;;;17.52;11.95;;;;;;;13.98;100.00;96372.59;5035673;28;20048;-73
2023/09/12 04:29:39;;;;;;;19.35;15.05;;;;;;;13.68;100.00;96376.56;5017912;28;20042;-73
2023/09/12 04:32:05;;;;;;;17.10;14.63;;;;;;;13.62;100.00;96364.41;5015604;28;20039;-76
2023/09/12 04:34:31;;;;;;;21.00;14.52;;;;;;;13.58;100.00;96352.63;5019057;28;20084;-75
2023/09/12 04:36:56;;;;;;;20.98;15.68;;;;;;;13.42;100.00;96353.03;5020252;28;20037;-72
2023/09/12 04:39:22;;;;;;;22.92;15.43;;;;;;;13.24;100.00;96360.47;5015820;28;20651;-72
2023/09/12 04:41:47;;;;;;;21.92;14.52;;;;;;;13.31;100.00;96352.25;5021411;28;20041;-73
2023/09/12 04:44:13;;;;;;;18.75;14.50;;;;;;;13.50;100.00;96364.81;5015681;28;20102;-74
2023/09/12 04:46:38;;;;;;;21.88;15.13;;;;;;;13.56;100.00;96364.03;5007325;28;20211;-73
2023/09/12 04:49:04;;;;;;;17.25;13.73;;;;;;;13.69;100.00;96364.41;5014065;28;20388;-74
2023/09/12 04:51:30;;;;;;;19.65;14.75;;;;;;;13.65;100.00;96371.06;4970083;28;20209;-73
2023/09/12 04:53:55;;;;;;;18.80;14.52;;;;;;;13.64;100.00;96362.03;5020967;28;20582;-73
2023/09/12 04:56:21;;;;;;;19.75;15.48;;;;;;;13.61;100.00;96362.81;5007569;28;20041;-71
2023/09/12 04:58:46;;;;;;;24.42;14.57;;;;;;;13.57;100.00;96371.06;5014877;28;20491;-74
2023/09/12 05:01:12;;;;;;;20.52;14.00;;;;;;;13.76;100.00;96371.88;5014450;28;20049;-74
2023/09/12 05:03:37;;;;;;;18.33;14.85;;;;;;;13.79;100.00;96379.31;5017355;28;20236;-73
2023/09/12 05:06:03;;;;;;;20.05;14.48;;;;;;;13.78;100.00;96380.50;5015618;28;20175;-74
2023/09/12 05:08:29;;;;;;;27.15;15.38;;;;;;;13.80;100.00;96380.91;4999808;28;20045;-73
2023/09/12 05:10:54;;;;;;;18.30;14.52;;;;;;;13.85;100.00;96387.97;5015158;28;20044;-74
2023/09/12 05:13:20;;;;;;;18.63;14.43;;;;;;;13.97;100.00;96379.28;5014236;28;20088;-73
2023/09/12 05:15:46;;;;;;;18.15;14.45;;;;;;;13.86;100.00;96382.06;5016647;28;20132;-73
2023/09/12 05:18:12;;;;;;;22.55;15.75;;;;;;;14.05;100.00;96388.34;4992961;28;20052;-72
2023/09/12 05:20:37;;;;;;;18.25;13.80;;;;;;;14.69;100.00;96390.09;4996019;28;20041;-72
2023/09/12 05:23:03;;;;;;;15.02;12.45;;;;;;;15.37;100.00;96386.13;4987839;28;20038;-74
2023/09/12 05:25:30;;;;;;;18.98;12.93;;;;;;;16.12;100.00;96382.72;5011140;28;20079;-73
2023/09/12 05:27:56;;;;;;;15.20;11.48;;;;;;;16.66;100.00;96393.16;5019093;23;20096;-68
2023/09/12 05:30:21;;;;;;;18.48;10.57;;;;;;;17.36;100.00;96400.94;5007505;28;20037;-68
2023/09/12 05:32:47;;;;;;;20.30;11.52;;;;;;;17.98;100.00;96402.72;5011120;28;20490;-69
2023/09/12 05:35:12;;;;;;;15.88;10.93;;;;;;;18.24;100.00;96401.88;5003452;28;20046;-68
2023/09/12 05:37:38;;;;;;;20.75;12.70;;;;;;;18.70;100.00;96402.94;5005881;28;20051;-68
2023/09/12 05:40:04;;;;;;;25.75;11.73;;;;;;;19.45;100.00;96405.31;5018015;28;20053;-68
2023/09/12 05:42:29;;;;;;;19.65;11.50;;;;;;;19.99;100.00;96410.38;5018925;28;20801;-69
2023/09/12 05:44:56;;;;;;;18.58;10.77;;;;;;;20.35;97.65;96415.00;5029631;28;20045;-69
2023/09/12 05:47:21;;;;;;;17.75;10.82;;;;;;;19.61;100.00;96407.34;5025196;28;20459;-68
2023/09/12 05:49:47;;;;;;;18.25;11.68;;;;;;;19.19;100.00;96409.88;5020643;28;20124;-68
2023/09/12 05:52:12;;;;;;;17.38;10.45;;;;;;;20.07;100.00;96421.31;5024420;28;20069;-68
2023/09/12 05:54:39;;;;;;;23.40;9.88;;;;;;;21.15;94.41;96422.69;5027430;28;20041;-68
2023/09/12 05:57:05;;;;;;;12.80;10.15;;;;;;;21.83;85.15;96428.19;5016684;28;20033;-67
2023/09/12 05:59:30;;;;;;;13.40;9.88;;;;;;;22.67;81.92;96430.53;5032017;28;20084;-68
2023/09/12 06:01:55;;;;;;;14.20;9.82;;;;;;;23.53;75.48;96437.72;5029332;28;20044;-68
2023/09/12 06:04:21;;;;;;;13.85;9.38;;;;;;;24.31;70.51;96437.78;5039241;28;21017;-67
2023/09/12 06:06:47;;;;;;;16.45;9.98;;;;;;;24.22;67.14;96444.19;5045000;28;20103;-68
2023/09/12 06:09:12;;;;;;;13.73;9.60;;;;;;;25.00;65.71;96451.19;5023344;28;20061;-67
2023/09/12 06:11:38;;;;;;;15.82;8.73;;;;;;;25.29;62.99;96446.34;5031223;28;20050;-68
2023/09/12 06:14:03;;;;;;;18.02;9.10;;;;;;;24.90;63.43;96451.66;5032707;28;20036;-65
2023/09/12 06:16:29;;;;;;;16.52;9.90;;;;;;;25.12;63.89;96455.06;5042859;28;20061;-66
2023/09/12 06:18:55;;;;;;;14.52;8.50;;;;;;;25.38;62.99;96452.69;5043074;28;20381;-68
2023/09/12 06:21:21;;;;;;;15.02;10.00;;;;;;;25.05;63.93;96452.59;5038293;28;20040;-68
2023/09/12 06:23:47;;;;;;;13.15;10.07;;;;;;;25.18;62.13;96449.59;5032374;28;20055;-67
2023/09/12 06:26:13;;;;;;;17.85;9.63;;;;;;;25.24;63.66;96439.34;5026733;28;20042;-66
2023/09/12 06:28:40;;;;;;;18.40;10.57;;;;;;;24.80;65.60;96434.09;5030294;28;20045;-67
2023/09/12 06:31:09;;;;;;;13.07;9.45;;;;;;;24.16;71.68;96432.78;5027163;28;20045;-67
2023/09/12 06:33:35;;;;;;;13.25;9.02;;;;;;;24.35;72.27;96439.22;5040102;28;20076;-67
2023/09/12 06:36:00;;;;;;;15.95;9.55;;;;;;;25.04;68.91;96437.03;5034625;28;20126;-71
2023/09/12 06:38:25;;;;;;;13.07;10.25;;;;;;;25.72;65.26;96450.69;5030211;28;20049;-67
2023/09/12 06:40:51;;;;;;;15.13;9.57;;;;;;;26.65;60.79;96456.59;5035609;28;20045;-67
2023/09/12 06:43:17;;;;;;;11.35;9.70;;;;;;;27.50;56.90;96457.38;5034039;28;20041;-67
2023/09/12 06:45:43;;;;;;;14.20;9.25;;;;;;;28.00;55.83;96461.00;5029062;28;20120;-67
2023/09/12 06:48:09;;;;;;;12.82;9.75;;;;;;;28.14;54.75;96459.38;5033294;28;20044;-67
2023/09/12 06:50:35;;;;;;;15.85;9.27;;;;;;;28.98;52.52;96464.53;5026099;28;20053;-67
2023/09/12 06:53:00;;;;;;;16.42;9.27;;;;;;;29.54;51.06;96458.69;5029090;28;20037;-67
2023/09/12 06:55:27;;;;;;;11.95;9.77;;;;;;;28.40;52.38;96467.94;5026253;28;20136;-67
2023/09/12 06:57:53;;;;;;;10.57;8.82;;;;;;;28.85;52.56;96459.28;5027087;28;20040;-68
2023/09/12 07:00:19;;;;;;;16.48;10.73;;;;;;;25.33;65.56;96452.56;5022201;28;20041;-67
2023/09/12 07:02:44;;;;;;;14.98;11.23;;;;;;;24.52;77.93;96447.31;5037575;28;20045;-67
2023/09/12 07:05:10;;;;;;;11.95;8.98;;;;;;;27.03;65.39;96462.69;5025188;28;20052;-67
2023/09/12 07:07:35;;;;;;;11.43;9.65;;;;;;;27.21;62.04;96459.69;5026149;28;20107;-67
2023/09/12 07:10:00;;;;;;;15.45;10.63;;;;;;;25.32;73.18;96437.78;5036966;28;20067;-67
2023/09/12 07:12:28;;;;;;;14.15;11.02;;;;;;;24.43;80.11;96440.47;5017979;28;20068;-67
2023/09/12 07:14:54;;;;;;;13.63;10.38;;;;;;;25.22;76.67;96441.81;5040169;28;20045;-68
2023/09/12 07:17:19;;;;;;;11.23;9.00;;;;;;;26.23;72.96;96446.25;5034450;28;20071;-68
2023/09/12 07:19:45;;;;;;;15.57;11.20;;;;;;;24.70;81.57;96441.72;5024863;28;20036;-67
2023/09/12 07:22:10;;;;;;;13.20;11.32;;;;;;;23.79;90.44;96438.28;5029948;28;20114;-68
2023/09/12 07:24:35;;;;;;;16.30;11.43;;;;;;;23.62;95.63;96440.56;5022970;28;20053;-67
2023/09/12 07:27:01;;;;;;;14.40;11.68;;;;;;;23.99;91.42;96437.13;5022889;28;20052;-68
2023/09/12 07:29:27;;;;;;;19.20;11.50;;;;;;;24.83;86.46;96444.38;5016923;28;20041;-68
2023/09/12 07:31:53;;;;;;;15.02;12.20;;;;;;;24.90;84.82;96440.47;5019730;28;20033;-68
2023/09/12 07:34:20;;;;;;;16.73;12.93;;;;;;;25.14;83.10;96440.59;5029584;28;20044;-68
2023/09/12 07:36:45;;;;;;;15.77;12.35;;;;;;;24.13;91.69;96435.75;5042049;28;20115;-68
2023/09/12 07:39:11;;;;;;;14.10;11.63;;;;;;;24.72;86.26;96435.66;5036799;28;20049;-68
2023/09/12 07:41:36;;;;;;;19.77;13.85;;;;;;;23.07;98.19;96441.06;5023655;28;20049;-67
2023/09/12 07:44:04;;;;;;;20.75;13.45;;;;;;;22.97;100.00;96439.41;5033601;28;20052;-67
2023/09/12 07:46:30;;;;;;;16.65;12.25;;;;;;;24.13;94.69;96436.53;5037763;28;20517;-67
2023/09/12 07:48:56;;;;;;;16.80;13.85;;;;;;;23.86;95.33;96437.25;5041523;28;20055;-68
2023/09/12 07:51:22;;;;;;;18.58;11.27;;;;;;;24.79;92.09;96449.34;5037378;28;20467;-68
2023/09/12 07:53:48;;;;;;;16.75;12.10;;;;;;;26.11;79.66;96455.69;5033492;28;20478;-68
2023/09/12 07:56:14;;;;;;;14.30;11.82;;;;;;;26.73;76.55;96462.63;5036139;28;20045;-66
2023/09/12 07:58:39;;;;;;;17.85;11.63;;;;;;;27.92;69.50;96467.53;5038269;28;20649;-67
2023/09/12 08:01:06;;;;;;;15.65;11.93;;;;;;;27.67;68.15;96475.28;5029950;28;20163;-66
2023/09/12 08:03:33;;;;;;;18.10;12.35;;;;;;;28.12;65.59;96478.81;5033303;28;20203;-67
2023/09/12 08:05:59;;;;;;;15.00;10.50;;;;;;;28.92;61.05;96478.59;5040781;28;20051;-66
2023/09/12 08:08:24;;;;;;;13.50;10.88;;;;;;;29.48;58.81;96481.22;5036859;28;20041;-68
2023/09/12 08:10:50;;;;;;;13.60;11.35;;;;;;;28.52;60.79;96468.88;5034009;28;20037;-68
2023/09/12 08:13:15;;;;;;;13.57;10.60;;;;;;;27.61;67.49;96472.38;5040574;28;20395;-68
2023/09/12 08:15:40;;;;;;;17.75;11.88;;;;;;;25.85;75.63;96458.13;5048624;28;20045;-70
2023/09/12 08:18:06;;;;;;;14.63;13.02;;;;;;;23.93;91.53;96462.13;5041668;28;20499;-68
2023/09/12 08:20:31;;;;;;;17.33;14.25;;;;;;;23.59;95.54;96449.88;5056141;28;20049;-67
2023/09/12 08:22:58;;;;;;;16.85;12.93;;;;;;;24.29;92.28;96457.88;5025775;28;20047;-67
2023/09/12 08:25:24;;;;;;;16.45;12.07;;;;;;;24.80;88.44;96454.47;5027277;28;20045;-67
2023/09/12 08:27:50;;;;;;;17.50;13.98;;;;;;;25.65;82.70;96461.50;5031625;28;20514;-67
2023/09/12 08:30:16;;;;;;;16.73;11.10;;;;;;;26.83;77.15;96472.53;5035777;28;20048;-67
2023/09/12 08:32:43;;;;;;;15.57;11.75;;;;;;;29.22;63.96;96478.41;5031569;28;20500;-68
2023/09/12 08:35:13;;;;;;;14.07;9.85;;;;;;;29.58;60.54;96470.50;5035349;28;20056;-67
2023/09/12 08:37:40;;;;;;;14.35;10.10;;;;;;;30.66;56.50;96484.09;5039075;28;20041;-68
2023/09/12 08:40:08;;;;;;;10.85;9.25;;;;;;;31.61;53.19;96496.22;5025466;28;20073;-68
2023/09/12 08:42:40;;;;;;;13.73;10.43;;;;;;;32.53;48.97;96493.53;5037268;28;20462;-67
2023/09/12 08:45:11;;;;;;;15.02;10.43;;;;;;;32.15;49.29;96498.00;5036528;28;20363;-67
2023/09/12 08:47:42;;;;;;;11.98;10.02;;;;;;;32.16;47.90;96503.16;5030610;28;20052;-68
2023/09/12 08:50:16;;;;;;;11.68;9.52;;;;;;;32.94;45.63;96509.13;5030606;28;20040;-68
2023/09/12 08:52:43;;;;;;;12.73;9.85;;;;;;;32.06;46.39;96498.28;5040267;28;20484;-68
2023/09/12 08:55:09;;;;;;;11.38;10.27;;;;;;;29.39;52.04;96486.25;5030051;28;20128;-68
2023/09/12 08:57:43;;;;;;;12.95;9.10;;;;;;;30.24;51.75;96490.53;5026518;28;20049;-68
2023/09/12 09:00:10;;;;;;;12.65;8.77;;;;;;;31.30;49.87;96489.47;5026645;28;20131;-68
2023/09/12 09:02:36;;;;;;;16.02;9.55;;;;;;;32.22;46.42;96499.56;5024282;28;20046;-68
2023/09/12 09:05:04;;;;;;;11.30;9.30;;;;;;;32.50;44.48;96505.94;5033223;28;20041;-67
2023/09/12 09:07:34;;;;;;;15.33;9.70;;;;;;;32.20;44.19;96483.84;5037046;28;20049;-67
2023/09/12 09:10:05;;;;;;;16.85;10.02;;;;;;;32.23;44.68;96490.50;5033755;28;20835;-66
2023/09/12 09:12:32;;;;;;;15.48;9.25;;;;;;;32.22;43.65;96489.00;5031320;28;20065;-68
2023/09/12 09:14:57;;;;;;;14.13;9.52;;;;;;;31.77;44.61;96478.44;5031927;28;20045;-67
2023/09/12 09:17:23;;;;;;;12.02;10.15;;;;;;;29.11;52.87;96464.94;5021518;28;20045;-67
2023/09/12 09:19:49;;;;;;;12.50;10.30;;;;;;;29.81;51.37;96465.84;5036362;28;20561;-67
2023/09/12 09:22:14;;;;;;;13.27;10.38;;;;;;;31.51;47.08;96475.88;5028633;28;20045;-67
2023/09/12 09:24:40;;;;;;;13.82;10.13;;;;;;;32.33;44.86;96480.44;5032254;28;20060;-67
2023/09/12 09:27:06;;;;;;;14.27;10.18;;;;;;;32.47;44.23;96481.44;5035331;28;20044;-67
2023/09/12 09:29:33;;;;;;;11.85;9.18;;;;;;;32.64;43.78;96483.47;5031601;28;20514;-67
2023/09/12 09:32:00;;;;;;;13.10;10.02;;;;;;;32.58;43.18;96480.63;5028914;28;20121;-67
2023/09/12 09:34:29;;;;;;;11.90;9.82;;;;;;;32.77;43.90;96480.84;5027729;28;20045;-67
2023/09/12 09:36:56;;;;;;;13.93;9.85;;;;;;;32.25;44.52;96470.16;5020150;28;20044;-67
2023/09/12 09:39:28;;;;;;;17.23;8.82;;;;;;;32.88;43.44;96480.03;5031293;28;20115;-67
2023/09/12 09:41:55;;;;;;;12.32;9.57;;;;;;;33.01;42.70;96470.91;5036812;28;20045;-66
2023/09/12 09:44:26;;;;;;;12.60;8.80;;;;;;;32.70;42.55;96473.66;5022238;28;20037;-69
2023/09/12 09:47:02;;;;;;;12.00;9.95;;;;;;;32.29;44.82;96456.53;5039459;28;20149;-67
2023/09/12 09:49:30;;;;;;;10.88;9.23;;;;;;;33.02;44.54;96455.47;5029005;28;20504;-66
2023/09/12 09:51:57;;;;;;;11.43;10.23;;;;;;;33.17;43.50;96452.28;5031768;28;20140;-67
2023/09/12 09:54:25;;;;;;;12.40;9.70;;;;;;;32.29;44.24;96448.03;5035762;28;20571;-66
2023/09/12 09:56:54;;;;;;;14.35;9.90;;;;;;;32.34;44.72;96450.03;5036103;28;20033;-68
2023/09/12 09:59:25;;;;;;;15.43;9.98;;;;;;;31.80;45.80;96459.66;5034388;28;20132;-68
2023/09/12 10:01:55;;;;;;;14.98;9.65;;;;;;;32.10;45.76;96451.41;5056508;28;20087;-68
2023/09/12 10:04:22;;;;;;;12.25;10.90;;;;;;;31.79;45.55;96450.38;5030968;28;20145;-66
2023/09/12 10:06:48;;;;;;;13.15;9.93;;;;;;;31.42;47.34;96442.91;5034868;28;20507;-68
2023/09/12 10:09:14;;;;;;;13.13;10.55;;;;;;;32.06;45.87;96433.91;5040080;28;20041;-68
2023/09/12 10:11:42;;;;;;;13.32;9.95;;;;;;;32.57;44.95;96434.53;5035693;28;20573;-67
2023/09/12 10:14:08;;;;;;;16.27;10.68;;;;;;;32.81;43.47;96432.34;5033689;28;20396;-66
2023/09/12 10:16:44;;;;;;;14.80;10.25;;;;;;;32.39;44.54;96426.59;5033212;28;20049;-67
2023/09/12 10:19:18;;;;;;;12.52;9.20;;;;;;;32.69;44.35;96421.09;5029763;28;20053;-68
2023/09/12 10:22:06;;;;;;;16.13;9.60;;;;;;;33.08;43.65;96419.31;5042555;28;20642;-68
2023/09/12 10:24:33;;;;;;;10.13;9.07;;;;;;;33.32;43.33;96421.50;5042750;28;20048;-68
2023/09/12 10:27:00;;;;;;;12.63;9.60;;;;;;;33.21;43.40;96424.44;5026461;28;20040;-68
2023/09/12 10:29:25;;;;;;;17.67;9.93;;;;;;;32.98;43.55;96410.34;5031103;28;20068;-66
2023/09/12 10:31:51;;;;;;;13.30;10.00;;;;;;;32.83;44.46;96412.78;5033843;28;20072;-68
2023/09/12 10:34:16;;;;;;;14.63;9.95;;;;;;;32.89;44.21;96416.34;5029776;28;20037;-68
2023/09/12 10:36:43;;;;;;;13.93;10.73;;;;;;;32.26;45.78;96417.88;5041305;28;20068;-66
2023/09/12 10:39:10;;;;;;;12.75;9.70;;;;;;;32.46;45.82;96408.28;5031437;28;20041;-67
2023/09/12 10:41:39;;;;;;;14.68;8.98;;;;;;;32.58;45.35;96413.41;5026301;28;20049;-68
2023/09/12 10:44:11;;;;;;;10.95;9.32;;;;;;;32.49;44.85;96410.84;5032282;28;20048;-65
2023/09/12 10:46:40;;;;;;;16.05;9.77;;;;;;;32.76;44.79;96414.09;5030797;28;20045;-68
2023/09/12 10:49:10;;;;;;;14.75;10.05;;;;;;;32.18;45.09;96414.81;5035079;28;20396;-65
2023/09/12 10:51:41;;;;;;;11.95;8.98;;;;;;;32.19;45.82;96405.78;5039997;28;20076;-68
2023/09/12 10:54:08;;;;;;;10.10;8.88;;;;;;;32.73;44.91;96398.88;5037974;28;20466;-67
2023/09/12 10:56:34;;;;;;;13.15;8.77;;;;;;;33.26;43.84;96403.72;5034945;28;20076;-66
2023/09/12 10:59:15;;;;;;;11.75;9.20;;;;;;;33.08;42.82;96410.78;5035192;28;20083;-67
2023/09/12 11:01:45;;;;;;;14.57;10.63;;;;;;;32.58;44.82;96401.28;5025207;28;20073;-67
2023/09/12 11:04:19;;;;;;;12.57;9.65;;;;;;;32.20;45.77;96396.00;5032806;28;20045;-66
2023/09/12 11:06:48;;;;;;;14.88;11.00;;;;;;;31.71;46.47;96394.81;5041058;28;20135;-66
2023/09/12 11:09:13;;;;;;;14.70;10.50;;;;;;;30.87;48.88;96384.97;5029864;28;20572;-66
2023/09/12 11:11:38;;;;;;;13.93;11.07;;;;;;;30.99;49.01;96386.56;5045943;28;20053;-68
2023/09/12 11:14:05;;;;;;;13.63;10.82;;;;;;;30.57;50.57;96385.41;5031917;28;20287;-67
2023/09/12 11:16:31;;;;;;;15.82;11.43;;;;;;;30.25;50.35;96379.88;5025901;28;20047;-68
2023/09/12 11:19:15;;;;;;;14.30;11.23;;;;;;;30.43;50.13;96378.69;5026588;28;20124;-68
2023/09/12 11:21:45;;;;;;;12.25;10.10;;;;;;;30.58;48.97;96380.53;5039942;28;20072;-66
2023/09/12 11:24:11;;;;;;;13.73;10.95;;;;;;;30.65;48.81;96369.50;5033363;28;20037;-67
2023/09/12 11:26:55;;;;;;;13.75;10.38;;;;;;;31.13;47.04;96375.50;5040820;28;20060;-67
2023/09/12 11:29:21;;;;;;;10.77;9.35;;;;;;;31.29;46.77;96371.91;5033089;28;20076;-67
2023/09/12 11:31:58;;;;;;;13.90;9.88;;;;;;;31.93;45.52;96377.00;5040329;28;20138;-67
2023/09/12 11:34:28;;;;;;;17.30;10.30;;;;;;;31.78;45.83;96372.41;5037233;28;20271;-65
2023/09/12 11:37:00;;;;;;;14.32;9.80;;;;;;;31.59;45.69;96365.75;5033279;28;20047;-67
2023/09/12 11:39:30;;;;;;;10.43;9.27;;;;;;;31.63;46.54;96369.84;5029202;28;20163;-67
2023/09/12 11:41:57;;;;;;;15.02;9.85;;;;;;;31.57;47.13;96365.50;5033316;28;20135;-66
2023/09/12 11:44:23;;;;;;;14.88;9.63;;;;;;;31.56;47.15;96355.47;5028818;28;20048;-68
2023/09/12 11:46:50;;;;;;;10.50;9.05;;;;;;;31.69;46.87;96352.09;5028607;28;20053;-69
2023/09/12 11:49:17;;;;;;;13.25;9.15;;;;;;;31.67;46.46;96340.53;5016701;28;20064;-68
2023/09/12 11:51:53;;;;;;;12.68;9.18;;;;;;;31.09;47.99;96338.22;5037725;28;20041;-67
2023/09/12 11:54:24;;;;;;;10.35;9.27;;;;;;;31.30;46.76;96335.91;5031966;28;20135;-67
2023/09/12 11:56:50;;;;;;;10.57;9.48;;;;;;;31.14;47.48;96343.13;5033539;28;20210;-67
2023/09/12 11:59:20;;;;;;;12.45;9.48;;;;;;;30.82;48.78;96337.66;5031658;28;20528;-67
2023/09/12 12:01:46;;;;;;;12.35;9.57;;;;;;;31.18;47.61;96333.06;5030416;28;20131;-67
2023/09/12 12:04:12;;;;;;;12.13;9.20;;;;;;;31.12;47.33;96337.97;5017249;28;20129;-66
2023/09/12 12:06:37;;;;;;;16.80;9.63;;;;;;;30.48;49.20;96331.94;5038203;28;20095;-66
2023/09/12 12:09:04;;;;;;;12.15;8.77;;;;;;;31.11;48.38;96339.25;5018675;28;20037;-66
2023/09/12 12:11:31;;;;;;;13.10;9.82;;;;;;;30.32;49.87;96330.56;5047462;28;20144;-66
2023/09/12 12:13:56;;;;;;;11.23;9.15;;;;;;;30.30;50.47;96328.25;5049437;28;20040;-67
2023/09/12 12:16:22;;;;;;;13.25;9.70;;;;;;;30.18;50.85;96321.06;5041879;28;20078;-66
2023/09/12 12:18:47;;;;;;;14.13;9.93;;;;;;;30.75;50.76;96321.22;5036825;28;20129;-66
2023/09/12 12:21:13;;;;;;;15.70;9.85;;;;;;;30.75;50.47;96318.38;5035621;28;20041;-66
2023/09/12 12:23:39;;;;;;;19.33;10.20;;;;;;;30.46;51.32;96312.66;5033019;28;20045;-67